Terminal Aerodrome Forecast
Issued by NWS Cleveland, OH

Home | Current Version | Previous Version | Text Only | Print | Product List | Glossary On
Versions: 1 2 3 4 5 6 7 8 9 10 11 12 13 14 15 16 17
000
FTUS41 KCLE 031736
TAFTOL
TAF
KTOL 031736Z 0318/0418 25010KT P6SM VCTS SCT050CB
      TEMPO 0320/0322 VRB15G25KT 2SM TSRA BKN050CB
     FM040000 27005KT P6SM VCSH BKN040
     FM040400 VRB03KT P6SM SCT100
     FM040800 VRB03KT 4SM BR SCT100
      TEMPO 0409/0412 2SM BR
     FM041500 21005KT P6SM SCT045=

USA.gov is the U.S. government's official web portal to all federal, state and local government web resources and services.